WWA215 KCLE-KMKE
Flight info
| Callsign | WWA215 |
|---|---|
| Flight time | 1h 6m |
| Altitude | 38000 |
| Route | GTLKE5 ALPHE PEGEE GETCH LYSTR SUDDS |
| Aircraft | B737/M-SDE2E3FGHIRWXY/LB1 |
Departure
| Time | 2026-05-05 12:26 |
|---|---|
| Airport | Cleveland Hopkins International Airport (KCLE) |
Arrival
| Time | 2026-05-05 13:33 |
|---|---|
| Airport | General Mitchell International Airport (KMKE) |
| Time | Latitude | Longitude | Altitude | Speed | Heading |
|---|---|---|---|---|---|
| 2026-05-05 12:17 | 41.40762 | -81.84069 | 800 ft | 0 kts | 279° |
| 2026-05-05 12:19 | 41.40761 | -81.84062 | 800 ft | 2 kts | 279° |
| 2026-05-05 12:19 | 41.40759 | -81.84039 | 800 ft | 3 kts | 279° |
| 2026-05-05 12:20 | 41.40756 | -81.84013 | 800 ft | 3 kts | 279° |
| 2026-05-05 12:20 | 41.40752 | -81.83987 | 800 ft | 3 kts | 279° |
| 2026-05-05 12:20 | 41.40752 | -81.83984 | 800 ft | 0 kts | 279° |
| 2026-05-05 12:21 | 41.40752 | -81.83985 | 800 ft | 0 kts | 279° |
| 2026-05-05 12:22 | 41.40744 | -81.83998 | 800 ft | 4 kts | 205° |
| 2026-05-05 12:22 | 41.40698 | -81.84026 | 800 ft | 11 kts | 205° |
| 2026-05-05 12:22 | 41.40620 | -81.84086 | 800 ft | 15 kts | 225° |
| 2026-05-05 12:22 | 41.40581 | -81.84213 | 800 ft | 16 kts | 291° |
| 2026-05-05 12:23 | 41.40658 | -81.84361 | 800 ft | 21 kts | 334° |
| 2026-05-05 12:23 | 41.40829 | -81.84378 | 800 ft | 29 kts | 2° |
| 2026-05-05 12:23 | 41.41049 | -81.84371 | 800 ft | 35 kts | 1° |
| 2026-05-05 12:23 | 41.41263 | -81.84229 | 800 ft | 37 kts | 32° |
| 2026-05-05 12:24 | 41.41450 | -81.83992 | 800 ft | 35 kts | 48° |
| 2026-05-05 12:24 | 41.41591 | -81.83890 | 800 ft | 20 kts | 334° |
| 2026-05-05 12:24 | 41.41702 | -81.84003 | 800 ft | 21 kts | 318° |
| 2026-05-05 12:24 | 41.41781 | -81.84154 | 800 ft | 19 kts | 273° |
| 2026-05-05 12:25 | 41.41788 | -81.84345 | 800 ft | 22 kts | 272° |
| 2026-05-05 12:25 | 41.41776 | -81.84504 | 800 ft | 13 kts | 234° |
| 2026-05-05 12:25 | 41.41719 | -81.84593 | 800 ft | 16 kts | 231° |
| 2026-05-05 12:25 | 41.41560 | -81.84838 | 800 ft | 59 kts | 230° |
| 2026-05-05 12:26 | 41.41182 | -81.85435 | 800 ft | 108 kts | 228° |
| 2026-05-05 12:26 | 41.40593 | -81.86329 | 813 ft | 147 kts | 228° |
| 2026-05-05 12:26 | 41.39882 | -81.87448 | 1131 ft | 164 kts | 229° |
| 2026-05-05 12:26 | 41.39218 | -81.88588 | 1995 ft | 152 kts | 233° |
| 2026-05-05 12:27 | 41.38910 | -81.89784 | 3026 ft | 123 kts | 253° |
| 2026-05-05 12:27 | 41.38814 | -81.90868 | 3678 ft | 118 kts | 258° |
| 2026-05-05 12:27 | 41.38689 | -81.92001 | 4022 ft | 131 kts | 257° |
| 2026-05-05 12:27 | 41.38528 | -81.93260 | 4367 ft | 146 kts | 257° |
| 2026-05-05 12:28 | 41.38347 | -81.94661 | 4710 ft | 163 kts | 258° |
| 2026-05-05 12:28 | 41.38146 | -81.96240 | 5058 ft | 183 kts | 258° |
| 2026-05-05 12:28 | 41.37921 | -81.98005 | 5422 ft | 204 kts | 259° |
| 2026-05-05 12:28 | 41.37674 | -81.99960 | 5786 ft | 226 kts | 259° |
| 2026-05-05 12:29 | 41.37406 | -82.02088 | 6332 ft | 237 kts | 259° |
| 2026-05-05 12:29 | 41.37134 | -82.04253 | 7181 ft | 239 kts | 259° |
| 2026-05-05 12:29 | 41.36859 | -82.06452 | 7976 ft | 243 kts | 259° |
| 2026-05-05 12:29 | 41.36579 | -82.08683 | 8775 ft | 247 kts | 259° |
| 2026-05-05 12:30 | 41.36294 | -82.10954 | 9568 ft | 251 kts | 259° |
| 2026-05-05 12:30 | 41.35995 | -82.13254 | 10354 ft | 255 kts | 259° |
| 2026-05-05 12:30 | 41.35689 | -82.15601 | 11063 ft | 263 kts | 258° |
| 2026-05-05 12:30 | 41.35194 | -82.18035 | 11405 ft | 284 kts | 253° |
| 2026-05-05 12:31 | 41.34577 | -82.20623 | 11720 ft | 304 kts | 252° |
| 2026-05-05 12:31 | 41.33904 | -82.23370 | 12111 ft | 319 kts | 252° |
| 2026-05-05 12:31 | 41.33220 | -82.26182 | 12902 ft | 322 kts | 252° |
| 2026-05-05 12:31 | 41.32526 | -82.29026 | 13641 ft | 326 kts | 252° |
| 2026-05-05 12:32 | 41.31816 | -82.31903 | 14402 ft | 331 kts | 252° |
| 2026-05-05 12:32 | 41.31091 | -82.34816 | 15206 ft | 334 kts | 252° |
| 2026-05-05 12:32 | 41.30362 | -82.37749 | 16017 ft | 336 kts | 252° |
| 2026-05-05 12:32 | 41.29625 | -82.40712 | 16776 ft | 340 kts | 252° |
| 2026-05-05 12:33 | 41.28877 | -82.43695 | 17525 ft | 343 kts | 253° |
| 2026-05-05 12:33 | 41.28354 | -82.46787 | 18254 ft | 345 kts | 261° |
| 2026-05-05 12:33 | 41.28126 | -82.49965 | 18972 ft | 348 kts | 266° |
| 2026-05-05 12:33 | 41.28006 | -82.53194 | 19622 ft | 353 kts | 267° |
| 2026-05-05 12:34 | 41.27892 | -82.56454 | 20279 ft | 356 kts | 267° |
| 2026-05-05 12:34 | 41.27777 | -82.59749 | 20910 ft | 359 kts | 267° |
| 2026-05-05 12:34 | 41.27779 | -82.63080 | 21515 ft | 363 kts | 272° |
| 2026-05-05 12:34 | 41.28000 | -82.66427 | 22103 ft | 366 kts | 275° |
| 2026-05-05 12:35 | 41.28278 | -82.69799 | 22675 ft | 369 kts | 276° |
| 2026-05-05 12:35 | 41.28575 | -82.73195 | 23229 ft | 372 kts | 276° |
| 2026-05-05 12:35 | 41.28893 | -82.76611 | 23831 ft | 373 kts | 276° |
| 2026-05-05 12:35 | 41.29211 | -82.80036 | 24345 ft | 376 kts | 276° |
| 2026-05-05 12:36 | 41.29533 | -82.83495 | 24877 ft | 379 kts | 276° |
| 2026-05-05 12:36 | 41.29854 | -82.86972 | 25371 ft | 382 kts | 276° |
| 2026-05-05 12:36 | 41.30176 | -82.90474 | 25862 ft | 384 kts | 276° |
| 2026-05-05 12:36 | 41.30522 | -82.93981 | 26395 ft | 385 kts | 278° |
| 2026-05-05 12:37 | 41.31467 | -82.97309 | 26892 ft | 389 kts | 298° |
| 2026-05-05 12:37 | 41.33023 | -83.00191 | 27774 ft | 383 kts | 304° |
| 2026-05-05 12:37 | 41.34707 | -83.02921 | 28335 ft | 383 kts | 306° |
| 2026-05-05 12:37 | 41.36428 | -83.05603 | 28911 ft | 381 kts | 306° |
| 2026-05-05 12:38 | 41.38142 | -83.08262 | 29487 ft | 378 kts | 306° |
| 2026-05-05 12:38 | 41.39844 | -83.10905 | 30049 ft | 375 kts | 306° |
| 2026-05-05 12:38 | 41.41540 | -83.13533 | 30541 ft | 374 kts | 306° |
| 2026-05-05 12:38 | 41.43227 | -83.16149 | 31063 ft | 372 kts | 306° |
| 2026-05-05 12:39 | 41.44914 | -83.18741 | 31534 ft | 371 kts | 307° |
| 2026-05-05 12:39 | 41.46621 | -83.21297 | 32031 ft | 368 kts | 307° |
| 2026-05-05 12:39 | 41.48330 | -83.23787 | 32617 ft | 363 kts | 308° |
| 2026-05-05 12:39 | 41.50034 | -83.26267 | 32985 ft | 363 kts | 307° |
| 2026-05-05 12:40 | 41.51717 | -83.28756 | 33394 ft | 361 kts | 307° |
| 2026-05-05 12:40 | 41.53412 | -83.31210 | 33773 ft | 360 kts | 308° |
| 2026-05-05 12:40 | 41.55086 | -83.33679 | 34151 ft | 359 kts | 307° |
| 2026-05-05 12:40 | 41.56757 | -83.36134 | 34505 ft | 358 kts | 308° |
| 2026-05-05 12:41 | 41.58432 | -83.38575 | 34837 ft | 357 kts | 307° |
| 2026-05-05 12:41 | 41.60083 | -83.41029 | 35165 ft | 356 kts | 307° |
| 2026-05-05 12:41 | 41.61751 | -83.43461 | 35481 ft | 355 kts | 307° |
| 2026-05-05 12:41 | 41.63398 | -83.45899 | 35741 ft | 355 kts | 307° |
| 2026-05-05 12:42 | 41.65053 | -83.48341 | 36030 ft | 354 kts | 307° |
| 2026-05-05 12:42 | 41.66696 | -83.50779 | 36307 ft | 353 kts | 306° |
| 2026-05-05 12:42 | 41.68324 | -83.53223 | 36584 ft | 353 kts | 306° |
| 2026-05-05 12:42 | 41.69955 | -83.55652 | 36851 ft | 352 kts | 306° |
| 2026-05-05 12:43 | 41.71584 | -83.58082 | 37108 ft | 351 kts | 306° |
| 2026-05-05 12:43 | 41.73207 | -83.60501 | 37361 ft | 350 kts | 306° |
| 2026-05-05 12:43 | 41.74828 | -83.62913 | 37608 ft | 349 kts | 307° |
| 2026-05-05 12:43 | 41.76448 | -83.65326 | 37736 ft | 351 kts | 306° |
| 2026-05-05 12:44 | 41.79697 | -83.70165 | 37744 ft | 347 kts | 307° |
| 2026-05-05 12:44 | 41.82903 | -83.74933 | 37749 ft | 345 kts | 307° |
| 2026-05-05 12:45 | 41.86111 | -83.79709 | 37747 ft | 345 kts | 307° |
| 2026-05-05 12:45 | 41.89313 | -83.84471 | 37750 ft | 345 kts | 308° |
| 2026-05-05 12:46 | 41.92754 | -83.88974 | 37744 ft | 347 kts | 311° |
| 2026-05-05 12:46 | 41.96333 | -83.93333 | 37743 ft | 348 kts | 312° |
| 2026-05-05 12:47 | 41.99927 | -83.97659 | 37745 ft | 348 kts | 312° |
| 2026-05-05 12:47 | 42.03540 | -84.02005 | 37742 ft | 352 kts | 312° |
| 2026-05-05 12:48 | 42.07170 | -84.06374 | 37741 ft | 350 kts | 312° |
| 2026-05-05 12:48 | 42.10780 | -84.10748 | 37739 ft | 350 kts | 312° |
| 2026-05-05 12:49 | 42.14385 | -84.15122 | 37737 ft | 350 kts | 311° |
| 2026-05-05 12:49 | 42.18018 | -84.19564 | 37739 ft | 356 kts | 311° |
| 2026-05-05 12:50 | 42.21700 | -84.24051 | 37739 ft | 360 kts | 311° |
| 2026-05-05 12:50 | 42.25403 | -84.28577 | 37738 ft | 362 kts | 311° |
| 2026-05-05 12:51 | 42.29173 | -84.33205 | 37741 ft | 373 kts | 311° |
| 2026-05-05 12:51 | 42.33043 | -84.37969 | 37738 ft | 383 kts | 311° |
| 2026-05-05 12:52 | 42.37019 | -84.42866 | 37739 ft | 392 kts | 311° |
| 2026-05-05 12:52 | 42.41086 | -84.47857 | 37734 ft | 398 kts | 313° |
| 2026-05-05 12:53 | 42.43398 | -84.49966 | 37742 ft | 407 kts | 324° |
| 2026-05-05 12:53 | 42.45931 | -84.51677 | 37735 ft | 409 kts | 327° |
| 2026-05-05 12:53 | 42.51096 | -84.54889 | 37733 ft | 410 kts | 328° |
| 2026-05-05 12:54 | 42.58907 | -84.59569 | 37735 ft | 411 kts | 329° |
| 2026-05-05 12:55 | 42.64166 | -84.62583 | 37738 ft | 412 kts | 329° |
| 2026-05-05 12:55 | 42.69427 | -84.65587 | 37740 ft | 411 kts | 329° |
| 2026-05-05 12:56 | 42.74687 | -84.68588 | 37741 ft | 411 kts | 329° |
| 2026-05-05 12:56 | 42.79941 | -84.71581 | 37564 ft | 409 kts | 329° |
| 2026-05-05 12:56 | 42.82542 | -84.73066 | 37110 ft | 404 kts | 329° |
| 2026-05-05 12:57 | 42.85119 | -84.74538 | 36658 ft | 401 kts | 328° |
| 2026-05-05 12:57 | 42.87699 | -84.76011 | 36209 ft | 405 kts | 329° |
| 2026-05-05 12:57 | 42.90292 | -84.77496 | 35758 ft | 405 kts | 328° |
| 2026-05-05 12:57 | 42.92881 | -84.78975 | 35308 ft | 405 kts | 328° |
| 2026-05-05 12:58 | 42.95472 | -84.80466 | 34857 ft | 405 kts | 328° |
| 2026-05-05 12:58 | 42.98070 | -84.81949 | 34407 ft | 406 kts | 328° |
| 2026-05-05 12:58 | 43.00662 | -84.83444 | 33957 ft | 406 kts | 328° |
| 2026-05-05 12:58 | 43.03261 | -84.84934 | 33506 ft | 407 kts | 328° |
| 2026-05-05 12:59 | 43.05874 | -84.86433 | 33055 ft | 408 kts | 327° |
| 2026-05-05 12:59 | 43.08480 | -84.87934 | 32605 ft | 409 kts | 326° |
| 2026-05-05 12:59 | 43.10963 | -84.89677 | 32135 ft | 392 kts | 313° |
| 2026-05-05 13:00 | 43.13573 | -84.95551 | 31247 ft | 358 kts | 278° |
| 2026-05-05 13:00 | 43.13888 | -84.98921 | 30802 ft | 358 kts | 273° |
| 2026-05-05 13:01 | 43.14408 | -85.09094 | 29449 ft | 359 kts | 271° |
| 2026-05-05 13:01 | 43.14568 | -85.12483 | 28998 ft | 358 kts | 271° |
| 2026-05-05 13:01 | 43.14700 | -85.15901 | 28547 ft | 362 kts | 270° |
| 2026-05-05 13:01 | 43.14823 | -85.19340 | 28096 ft | 364 kts | 270° |
| 2026-05-05 13:02 | 43.14950 | -85.22807 | 27849 ft | 367 kts | 271° |
| 2026-05-05 13:02 | 43.15078 | -85.26293 | 27762 ft | 368 kts | 271° |
| 2026-05-05 13:02 | 43.15186 | -85.29790 | 27753 ft | 369 kts | 270° |
| 2026-05-05 13:02 | 43.15274 | -85.33293 | 27754 ft | 369 kts | 270° |
| 2026-05-05 13:03 | 43.15361 | -85.36796 | 27754 ft | 369 kts | 270° |
| 2026-05-05 13:03 | 43.15449 | -85.40306 | 27755 ft | 369 kts | 270° |
| 2026-05-05 13:03 | 43.15523 | -85.43155 | 27754 ft | 369 kts | 270° |
| 2026-05-05 13:03 | 43.15614 | -85.46657 | 27761 ft | 370 kts | 270° |
| 2026-05-05 13:04 | 43.15705 | -85.50150 | 27708 ft | 362 kts | 270° |
| 2026-05-05 13:04 | 43.15777 | -85.53504 | 27454 ft | 345 kts | 269° |
| 2026-05-05 13:04 | 43.15835 | -85.56726 | 27075 ft | 334 kts | 269° |
| 2026-05-05 13:04 | 43.15895 | -85.59848 | 26698 ft | 325 kts | 269° |
| 2026-05-05 13:05 | 43.15957 | -85.62944 | 26323 ft | 328 kts | 269° |
| 2026-05-05 13:05 | 43.16020 | -85.66064 | 25946 ft | 328 kts | 269° |
| 2026-05-05 13:05 | 43.16084 | -85.69174 | 25570 ft | 327 kts | 269° |
| 2026-05-05 13:05 | 43.16149 | -85.72280 | 25193 ft | 326 kts | 269° |
| 2026-05-05 13:06 | 43.16214 | -85.75372 | 24816 ft | 325 kts | 269° |
| 2026-05-05 13:06 | 43.16279 | -85.78451 | 24440 ft | 324 kts | 270° |
| 2026-05-05 13:06 | 43.16344 | -85.81519 | 24064 ft | 322 kts | 271° |
| 2026-05-05 13:06 | 43.16410 | -85.84573 | 23687 ft | 321 kts | 271° |
| 2026-05-05 13:07 | 43.16476 | -85.87613 | 23361 ft | 319 kts | 271° |
| 2026-05-05 13:07 | 43.16543 | -85.90636 | 23066 ft | 319 kts | 271° |
| 2026-05-05 13:07 | 43.16611 | -85.93661 | 22764 ft | 317 kts | 270° |
| 2026-05-05 13:07 | 43.16678 | -85.96663 | 22462 ft | 316 kts | 270° |
| 2026-05-05 13:08 | 43.16743 | -85.99624 | 22164 ft | 315 kts | 270° |
| 2026-05-05 13:08 | 43.16802 | -86.02637 | 21859 ft | 313 kts | 270° |
| 2026-05-05 13:08 | 43.16872 | -86.05601 | 21557 ft | 311 kts | 270° |
| 2026-05-05 13:08 | 43.16894 | -86.08544 | 21256 ft | 309 kts | 268° |
| 2026-05-05 13:09 | 43.16854 | -86.11470 | 20955 ft | 307 kts | 267° |
| 2026-05-05 13:09 | 43.16799 | -86.14382 | 20653 ft | 306 kts | 267° |
| 2026-05-05 13:09 | 43.16746 | -86.17275 | 20351 ft | 304 kts | 267° |
| 2026-05-05 13:09 | 43.16692 | -86.20166 | 20050 ft | 305 kts | 267° |
| 2026-05-05 13:10 | 43.16642 | -86.23050 | 19748 ft | 303 kts | 267° |
| 2026-05-05 13:10 | 43.16592 | -86.25918 | 19446 ft | 303 kts | 267° |
| 2026-05-05 13:10 | 43.16540 | -86.28840 | 19146 ft | 310 kts | 267° |
| 2026-05-05 13:10 | 43.16489 | -86.31773 | 18844 ft | 308 kts | 268° |
| 2026-05-05 13:11 | 43.16441 | -86.34686 | 18542 ft | 307 kts | 268° |
| 2026-05-05 13:11 | 43.16393 | -86.37596 | 18241 ft | 306 kts | 268° |
| 2026-05-05 13:11 | 43.16345 | -86.40485 | 17939 ft | 304 kts | 268° |
| 2026-05-05 13:11 | 43.16300 | -86.43364 | 17638 ft | 302 kts | 268° |
| 2026-05-05 13:12 | 43.16256 | -86.46229 | 17336 ft | 301 kts | 268° |
| 2026-05-05 13:12 | 43.16030 | -86.49051 | 17026 ft | 300 kts | 257° |
| 2026-05-05 13:12 | 43.15348 | -86.51768 | 16731 ft | 303 kts | 250° |
| 2026-05-05 13:12 | 43.14542 | -86.54422 | 16404 ft | 302 kts | 249° |
| 2026-05-05 13:13 | 43.13723 | -86.57046 | 16053 ft | 300 kts | 249° |
| 2026-05-05 13:13 | 43.12906 | -86.59656 | 15701 ft | 298 kts | 249° |
| 2026-05-05 13:13 | 43.12098 | -86.62253 | 15349 ft | 297 kts | 249° |
| 2026-05-05 13:13 | 43.11288 | -86.64854 | 15002 ft | 306 kts | 249° |
| 2026-05-05 13:14 | 43.10411 | -86.67672 | 14654 ft | 335 kts | 249° |
| 2026-05-05 13:14 | 43.09494 | -86.70615 | 14303 ft | 338 kts | 249° |
| 2026-05-05 13:14 | 43.08587 | -86.73549 | 13952 ft | 334 kts | 249° |
| 2026-05-05 13:14 | 43.07710 | -86.76483 | 13600 ft | 333 kts | 250° |
| 2026-05-05 13:15 | 43.06855 | -86.79409 | 13248 ft | 332 kts | 250° |
| 2026-05-05 13:15 | 43.06032 | -86.82331 | 12897 ft | 328 kts | 251° |
| 2026-05-05 13:15 | 43.05222 | -86.85198 | 12545 ft | 319 kts | 250° |
| 2026-05-05 13:15 | 43.04422 | -86.87958 | 12193 ft | 308 kts | 250° |
| 2026-05-05 13:16 | 43.03661 | -86.90634 | 11839 ft | 297 kts | 250° |
| 2026-05-05 13:16 | 43.02912 | -86.93203 | 11488 ft | 287 kts | 250° |
| 2026-05-05 13:16 | 43.02183 | -86.95692 | 11134 ft | 278 kts | 250° |
| 2026-05-05 13:16 | 43.01478 | -86.98101 | 10780 ft | 270 kts | 250° |
| 2026-05-05 13:17 | 43.00788 | -87.00450 | 10417 ft | 266 kts | 256° |
| 2026-05-05 13:17 | 43.00111 | -87.02769 | 10079 ft | 261 kts | 256° |
| 2026-05-05 13:17 | 42.99453 | -87.05039 | 9850 ft | 255 kts | 256° |
| 2026-05-05 13:17 | 42.98807 | -87.07262 | 9619 ft | 251 kts | 257° |
| 2026-05-05 13:18 | 42.98160 | -87.09500 | 9393 ft | 258 kts | 257° |
| 2026-05-05 13:18 | 42.97505 | -87.11795 | 9168 ft | 262 kts | 257° |
| 2026-05-05 13:18 | 42.96834 | -87.14097 | 8937 ft | 261 kts | 256° |
| 2026-05-05 13:18 | 42.96179 | -87.16380 | 8684 ft | 257 kts | 256° |
| 2026-05-05 13:19 | 42.95529 | -87.18636 | 8432 ft | 256 kts | 256° |
| 2026-05-05 13:19 | 42.94874 | -87.20885 | 8181 ft | 255 kts | 256° |
| 2026-05-05 13:19 | 42.94226 | -87.23120 | 7929 ft | 254 kts | 255° |
| 2026-05-05 13:19 | 42.93580 | -87.25348 | 7678 ft | 252 kts | 255° |
| 2026-05-05 13:20 | 42.92937 | -87.27564 | 7426 ft | 251 kts | 255° |
| 2026-05-05 13:20 | 42.92297 | -87.29770 | 7175 ft | 250 kts | 255° |
| 2026-05-05 13:20 | 42.91661 | -87.31971 | 6923 ft | 249 kts | 254° |
| 2026-05-05 13:20 | 42.91028 | -87.34160 | 6671 ft | 248 kts | 254° |
| 2026-05-05 13:21 | 42.90397 | -87.36343 | 6420 ft | 247 kts | 254° |
| 2026-05-05 13:21 | 42.89769 | -87.38517 | 6169 ft | 247 kts | 253° |
| 2026-05-05 13:21 | 42.89143 | -87.40683 | 5918 ft | 246 kts | 253° |
| 2026-05-05 13:21 | 42.88521 | -87.42845 | 5667 ft | 245 kts | 253° |
| 2026-05-05 13:22 | 42.87903 | -87.44995 | 5416 ft | 244 kts | 253° |
| 2026-05-05 13:22 | 42.87477 | -87.47208 | 5164 ft | 241 kts | 262° |
| 2026-05-05 13:22 | 42.86907 | -87.49348 | 4882 ft | 245 kts | 243° |
| 2026-05-05 13:22 | 42.85762 | -87.51041 | 4652 ft | 243 kts | 226° |
| 2026-05-05 13:23 | 42.84490 | -87.52504 | 4401 ft | 238 kts | 224° |
| 2026-05-05 13:23 | 42.83224 | -87.53909 | 4147 ft | 233 kts | 224° |
| 2026-05-05 13:23 | 42.81981 | -87.55277 | 3895 ft | 228 kts | 224° |
| 2026-05-05 13:23 | 42.80761 | -87.56618 | 3644 ft | 224 kts | 224° |
| 2026-05-05 13:24 | 42.79565 | -87.57932 | 3393 ft | 220 kts | 224° |
| 2026-05-05 13:24 | 42.78387 | -87.59227 | 3141 ft | 216 kts | 224° |
| 2026-05-05 13:24 | 42.77370 | -87.60669 | 2865 ft | 209 kts | 239° |
| 2026-05-05 13:24 | 42.76745 | -87.62406 | 2736 ft | 204 kts | 251° |
| 2026-05-05 13:25 | 42.76226 | -87.64201 | 2730 ft | 205 kts | 253° |
| 2026-05-05 13:25 | 42.75729 | -87.66015 | 2729 ft | 205 kts | 253° |
| 2026-05-05 13:25 | 42.75239 | -87.67829 | 2731 ft | 205 kts | 253° |
| 2026-05-05 13:25 | 42.74750 | -87.69644 | 2730 ft | 204 kts | 253° |
| 2026-05-05 13:26 | 42.74263 | -87.71449 | 2742 ft | 204 kts | 253° |
| 2026-05-05 13:26 | 42.73771 | -87.73246 | 2757 ft | 203 kts | 253° |
| 2026-05-05 13:26 | 42.73270 | -87.75033 | 2763 ft | 202 kts | 253° |
| 2026-05-05 13:26 | 42.72759 | -87.76812 | 2757 ft | 203 kts | 252° |
| 2026-05-05 13:27 | 42.72353 | -87.78604 | 2724 ft | 196 kts | 265° |
| 2026-05-05 13:27 | 42.72403 | -87.80447 | 2591 ft | 193 kts | 280° |
| 2026-05-05 13:27 | 42.72716 | -87.82168 | 2604 ft | 185 kts | 291° |
| 2026-05-05 13:27 | 42.73296 | -87.83705 | 2673 ft | 177 kts | 300° |
| 2026-05-05 13:28 | 42.73926 | -87.85108 | 2740 ft | 172 kts | 303° |
| 2026-05-05 13:28 | 42.74575 | -87.86457 | 2652 ft | 172 kts | 304° |
| 2026-05-05 13:28 | 42.75244 | -87.87775 | 2651 ft | 164 kts | 308° |
| 2026-05-05 13:28 | 42.76118 | -87.88694 | 2639 ft | 159 kts | 328° |
| 2026-05-05 13:29 | 42.77109 | -87.89303 | 2622 ft | 157 kts | 334° |
| 2026-05-05 13:29 | 42.78122 | -87.89868 | 2624 ft | 158 kts | 335° |
| 2026-05-05 13:29 | 42.79133 | -87.90411 | 2665 ft | 156 kts | 335° |
| 2026-05-05 13:29 | 42.80189 | -87.90793 | 2573 ft | 164 kts | 348° |
| 2026-05-05 13:30 | 42.81292 | -87.90919 | 2422 ft | 153 kts | 350° |
| 2026-05-05 13:30 | 42.82337 | -87.91068 | 2325 ft | 147 kts | 349° |
| 2026-05-05 13:30 | 42.83335 | -87.91207 | 2321 ft | 144 kts | 351° |
| 2026-05-05 13:30 | 42.84352 | -87.91155 | 2245 ft | 150 kts | 360° |
| 2026-05-05 13:31 | 42.85406 | -87.90977 | 2122 ft | 156 kts | 2° |
| 2026-05-05 13:31 | 42.86480 | -87.90795 | 2011 ft | 151 kts | 2° |
| 2026-05-05 13:31 | 42.87470 | -87.90657 | 1858 ft | 141 kts | 1° |
| 2026-05-05 13:31 | 42.88445 | -87.90513 | 1601 ft | 141 kts | 3° |
| 2026-05-05 13:32 | 42.89402 | -87.90389 | 1347 ft | 136 kts | 2° |
| 2026-05-05 13:32 | 42.90338 | -87.90267 | 1172 ft | 136 kts | 4° |
| 2026-05-05 13:32 | 42.91271 | -87.90101 | 1061 ft | 136 kts | 4° |
| 2026-05-05 13:32 | 42.92206 | -87.89906 | 925 ft | 136 kts | 4° |
| 2026-05-05 13:33 | 42.93143 | -87.89750 | 761 ft | 135 kts | 5° |
| 2026-05-05 13:33 | 42.93962 | -87.89604 | 731 ft | 86 kts | 9° |
| 2026-05-05 13:33 | 42.94294 | -87.89528 | 731 ft | 28 kts | 8° |
| 2026-05-05 13:33 | 42.94499 | -87.89492 | 731 ft | 31 kts | 5° |
| 2026-05-05 13:34 | 42.94706 | -87.89504 | 731 ft | 27 kts | 318° |
| 2026-05-05 13:34 | 42.94730 | -87.89593 | 731 ft | 0 kts | 271° |